Time;durP1;ratioP1;P1;durP2;ratioP2;P2;SDS_P1;SDS_P2;PMS_P1;PMS_P2;Temp;Humidity;BMP_temperature;BMP_pressure;BME280_temperature;BME280_humidity;BME280_pressure;Samples;Min_cycle;Max_cycle;Signal;HPM_P1;HPM_P2
2023/10/21 00:00:34;;;;;;;0.40;0.35;;;14.70;99.90;;;;;;7390653;19;20154;-75
2023/10/21 00:03:00;;;;;;;0.75;0.50;;;14.30;99.90;;;;;;7387821;19;20840;-74
2023/10/21 00:05:27;;;;;;;0.40;0.40;;;14.50;99.90;;;;;;7387547;19;20147;-74
2023/10/21 00:07:53;;;;;;;0.85;0.30;;;14.40;99.90;;;;;;7385772;19;20644;-74
2023/10/21 00:10:19;;;;;;;0.40;0.38;;;14.50;99.90;;;;;;7387825;19;20143;-75
2023/10/21 00:12:45;;;;;;;0.40;0.40;;;14.40;99.90;;;;;;7387984;19;20168;-74
2023/10/21 00:15:11;;;;;;;0.47;0.43;;;14.30;99.90;;;;;;7386767;19;20139;-74
2023/10/21 00:17:37;;;;;;;0.40;0.40;;;14.30;99.90;;;;;;7387273;19;20142;-75
2023/10/21 00:20:06;;;;;;;0.63;0.40;;;14.20;99.90;;;;;;7389519;19;20594;-74
2023/10/21 00:22:32;;;;;;;0.22;0.22;;;14.30;99.90;;;;;;7390867;19;20162;-74
2023/10/21 00:25:00;;;;;;;0.30;0.30;;;14.40;99.90;;;;;;7389415;19;20147;-75
2023/10/21 00:27:26;;;;;;;0.20;0.20;;;14.50;99.90;;;;;;7390258;19;20139;-74
2023/10/21 00:29:52;;;;;;;0.30;0.30;;;14.60;99.90;;;;;;7387441;19;20525;-74
2023/10/21 00:32:18;;;;;;;0.57;0.50;;;14.70;99.90;;;;;;7387800;19;20154;-74
2023/10/21 00:34:44;;;;;;;0.20;0.20;;;14.70;99.90;;;;;;7389072;19;20134;-76
2023/10/21 00:37:10;;;;;;;0.20;0.20;;;14.80;99.90;;;;;;7388619;19;20155;-75
2023/10/21 00:39:36;;;;;;;0.13;0.13;;;14.90;99.90;;;;;;7387373;19;20146;-74
2023/10/21 00:42:02;;;;;;;0.28;0.28;;;14.90;99.90;;;;;;7391612;19;20233;-74
2023/10/21 00:44:28;;;;;;;0.20;0.20;;;15.00;99.90;;;;;;7396166;19;20166;-75
2023/10/21 00:46:54;;;;;;;0.28;0.28;;;15.10;99.90;;;;;;7394469;19;20146;-73
2023/10/21 00:49:20;;;;;;;0.25;0.25;;;15.10;99.90;;;;;;7396044;19;20134;-74
2023/10/21 00:51:48;;;;;;;0.20;0.20;;;15.20;99.90;;;;;;7394283;19;20146;-75
2023/10/21 00:54:16;;;;;;;0.20;0.20;;;15.10;99.90;;;;;;7397646;19;20138;-75
2023/10/21 00:56:42;;;;;;;0.15;0.15;;;15.20;99.90;;;;;;7394528;19;20139;-74
2023/10/21 00:59:10;;;;;;;0.20;0.20;;;15.40;99.90;;;;;;7398342;19;20145;-74
2023/10/21 01:01:36;;;;;;;0.20;0.20;;;15.30;99.90;;;;;;7394645;19;20135;-74
2023/10/21 01:04:05;;;;;;;0.20;0.20;;;15.20;99.90;;;;;;7397536;19;20252;-73
2023/10/21 01:06:34;;;;;;;0.25;0.25;;;15.40;99.90;;;;;;7391847;19;21515;-74
2023/10/21 01:08:59;;;;;;;0.22;0.22;;;15.40;99.90;;;;;;7391540;19;20163;-74
2023/10/21 01:11:25;;;;;;;0.20;0.20;;;15.40;99.90;;;;;;7394446;19;20135;-74
2023/10/21 01:13:51;;;;;;;0.20;0.20;;;15.20;99.90;;;;;;7393340;19;20134;-74
2023/10/21 01:16:17;;;;;;;0.30;0.30;;;15.20;99.90;;;;;;7393045;19;20142;-74
2023/10/21 01:18:43;;;;;;;0.38;0.30;;;15.30;99.90;;;;;;7396076;19;20845;-74
2023/10/21 01:21:10;;;;;;;0.30;0.30;;;15.30;99.90;;;;;;7396989;19;20194;-75
2023/10/21 01:23:36;;;;;;;0.98;0.22;;;15.30;99.90;;;;;;7393238;19;20616;-74
2023/10/21 01:26:03;;;;;;;0.20;0.20;;;15.50;99.90;;;;;;7394542;19;20143;-74
2023/10/21 01:28:29;;;;;;;0.38;0.30;;;15.50;99.90;;;;;;7391406;19;20142;-75
2023/10/21 01:30:55;;;;;;;2.15;0.40;;;15.40;99.90;;;;;;7394788;19;20133;-74
2023/10/21 01:33:21;;;;;;;1.08;0.40;;;15.30;99.90;;;;;;7394738;19;20127;-73
2023/10/21 01:35:47;;;;;;;0.25;0.25;;;15.40;99.90;;;;;;7388671;19;21459;-74
2023/10/21 01:38:15;;;;;;;0.52;0.40;;;15.30;99.90;;;;;;7395037;19;20137;-74
2023/10/21 01:40:40;;;;;;;0.20;0.20;;;15.10;99.90;;;;;;7392754;19;20478;-74
2023/10/21 01:43:06;;;;;;;0.30;0.30;;;15.20;99.90;;;;;;7394236;19;20135;-73
2023/10/21 01:45:38;;;;;;;0.20;0.20;;;15.30;99.90;;;;;;7392660;19;20867;-73
2023/10/21 01:48:05;;;;;;;0.30;0.30;;;15.20;99.90;;;;;;7392089;19;20149;-74
2023/10/21 01:50:31;;;;;;;0.20;0.20;;;15.30;99.90;;;;;;7388877;19;20130;-74
2023/10/21 01:52:57;;;;;;;0.20;0.20;;;15.40;99.90;;;;;;7395247;19;20144;-74
2023/10/21 01:55:23;;;;;;;0.25;0.25;;;15.40;99.90;;;;;;7395110;19;20123;-74
2023/10/21 01:57:49;;;;;;;0.30;0.30;;;15.40;99.90;;;;;;7393102;19;20137;-74
2023/10/21 02:00:22;;;;;;;0.38;0.38;;;15.40;99.90;;;;;;7394193;19;20485;-74
2023/10/21 02:02:52;;;;;;;0.65;0.50;;;15.40;99.90;;;;;;7392250;19;20134;-74
2023/10/21 02:05:18;;;;;;;0.20;0.20;;;15.50;99.90;;;;;;7392319;19;20168;-74
2023/10/21 02:07:45;;;;;;;0.20;0.20;;;15.50;99.90;;;;;;7389478;19;20158;-74
2023/10/21 02:10:11;;;;;;;0.20;0.20;;;15.30;99.90;;;;;;7391319;19;20482;-75
2023/10/21 02:12:37;;;;;;;0.10;0.10;;;15.30;99.90;;;;;;7392379;19;20141;-74
2023/10/21 02:15:03;;;;;;;0.10;0.10;;;15.30;99.90;;;;;;7393616;19;20489;-73
2023/10/21 02:17:29;;;;;;;0.15;0.15;;;15.20;99.90;;;;;;7391550;19;20608;-74
2023/10/21 02:19:58;;;;;;;0.20;0.20;;;15.20;99.90;;;;;;7393285;19;20162;-74
2023/10/21 02:22:25;;;;;;;0.10;0.10;;;15.10;99.90;;;;;;7391783;19;20154;-74
2023/10/21 02:24:53;;;;;;;0.32;0.20;;;15.20;99.90;;;;;;7391859;19;20173;-74
2023/10/21 02:27:19;;;;;;;0.30;0.30;;;15.10;99.90;;;;;;7391220;19;20141;-75
2023/10/21 02:29:45;;;;;;;0.40;0.40;;;15.10;99.90;;;;;;7391238;19;20159;-74
2023/10/21 02:32:11;;;;;;;0.30;0.30;;;15.20;99.90;;;;;;7390518;19;20501;-75
2023/10/21 02:34:37;;;;;;;0.30;0.30;;;15.20;99.90;;;;;;7394225;19;20126;-75
2023/10/21 02:37:03;;;;;;;0.20;0.20;;;15.10;99.90;;;;;;7389445;19;20238;-74
2023/10/21 02:39:29;;;;;;;0.13;0.13;;;15.00;99.90;;;;;;7394562;19;20454;-76
2023/10/21 02:41:55;;;;;;;0.20;0.20;;;15.00;99.90;;;;;;7391396;19;20119;-74
2023/10/21 02:44:21;;;;;;;0.10;0.10;;;14.90;99.90;;;;;;7391466;19;20134;-73
2023/10/21 02:46:48;;;;;;;0.35;0.20;;;14.90;99.90;;;;;;7391544;19;20148;-74
2023/10/21 02:49:14;;;;;;;0.20;0.20;;;14.80;99.90;;;;;;7389351;19;20134;-73
2023/10/21 02:51:43;;;;;;;0.55;0.20;;;14.80;99.90;;;;;;7389198;19;20507;-75
2023/10/21 02:54:09;;;;;;;0.20;0.20;;;14.80;99.90;;;;;;7390431;19;20239;-75
2023/10/21 02:56:35;;;;;;;0.63;0.20;;;14.80;99.90;;;;;;7390005;19;20576;-74
2023/10/21 02:59:01;;;;;;;0.10;0.10;;;14.80;99.90;;;;;;7393828;19;20161;-75
2023/10/21 03:01:26;;;;;;;0.13;0.13;;;14.80;99.90;;;;;;7391235;19;20627;-75
2023/10/21 03:03:52;;;;;;;0.20;0.20;;;14.90;99.90;;;;;;7389348;19;20143;-74
2023/10/21 03:06:21;;;;;;;0.20;0.20;;;15.00;99.90;;;;;;7387540;19;20667;-75
2023/10/21 03:08:47;;;;;;;0.22;0.22;;;15.00;99.90;;;;;;7390548;19;20141;-74
2023/10/21 03:11:14;;;;;;;0.20;0.20;;;15.00;99.90;;;;;;7389561;19;20600;-75
2023/10/21 03:13:40;;;;;;;1.20;0.38;;;14.90;99.90;;;;;;7390651;19;20143;-74
2023/10/21 03:16:08;;;;;;;0.20;0.20;;;15.10;99.90;;;;;;7388583;19;20978;-75
2023/10/21 03:18:35;;;;;;;0.30;0.30;;;15.10;99.90;;;;;;7390689;19;20134;-74
2023/10/21 03:21:03;;;;;;;0.13;0.13;;;15.30;99.90;;;;;;7389345;19;20146;-74
2023/10/21 03:23:29;;;;;;;0.30;0.30;;;15.20;99.90;;;;;;7391109;19;20488;-74
2023/10/21 03:26:00;;;;;;;0.20;0.20;;;15.10;99.90;;;;;;7388153;19;20146;-74
2023/10/21 03:28:27;;;;;;;1.10;0.32;;;15.00;99.90;;;;;;7388876;19;20622;-74
2023/10/21 03:30:57;;;;;;;0.20;0.20;;;14.90;99.90;;;;;;7389118;19;20134;-74
2023/10/21 03:33:29;;;;;;;0.20;0.20;;;14.80;99.90;;;;;;7389043;19;20591;-75
2023/10/21 03:36:00;;;;;;;0.10;0.10;;;15.10;99.90;;;;;;7390662;19;20725;-75
2023/10/21 03:38:26;;;;;;;0.20;0.20;;;15.00;99.90;;;;;;7390601;19;20719;-74
2023/10/21 03:41:03;;;;;;;0.30;0.22;;;14.80;99.90;;;;;;7389274;19;20139;-75
2023/10/21 03:43:29;;;;;;;0.35;0.30;;;15.00;99.90;;;;;;7388086;19;20134;-75
2023/10/21 03:45:55;;;;;;;0.10;0.10;;;15.10;99.90;;;;;;7387505;19;20160;-74
2023/10/21 03:48:22;;;;;;;0.20;0.20;;;15.10;99.90;;;;;;7390637;19;20135;-74
2023/10/21 03:50:51;;;;;;;0.20;0.20;;;15.10;99.90;;;;;;7388272;19;20544;-74
2023/10/21 03:53:17;;;;;;;0.22;0.22;;;15.20;99.90;;;;;;7387122;19;20131;-74
2023/10/21 03:55:44;;;;;;;0.30;0.30;;;15.20;99.90;;;;;;7388636;19;20138;-75
2023/10/21 03:58:13;;;;;;;0.20;0.20;;;15.10;99.90;;;;;;7389756;19;20148;-75
2023/10/21 04:00:39;;;;;;;0.30;0.30;;;15.10;99.90;;;;;;7389463;19;20147;-75
2023/10/21 04:03:07;;;;;;;0.20;0.20;;;14.90;99.90;;;;;;7389756;19;20130;-74
2023/10/21 04:05:33;;;;;;;0.50;0.50;;;14.70;99.90;;;;;;7389477;19;20143;-74
2023/10/21 04:07:59;;;;;;;0.20;0.20;;;14.60;99.90;;;;;;7386650;19;20568;-75
2023/10/21 04:10:25;;;;;;;0.38;0.30;;;14.50;99.90;;;;;;7390460;19;20138;-75
2023/10/21 04:12:51;;;;;;;0.17;0.17;;;14.40;99.90;;;;;;7389543;19;20458;-74
2023/10/21 04:15:17;;;;;;;0.50;0.15;;;14.40;99.90;;;;;;7386947;19;20153;-75
2023/10/21 04:17:45;;;;;;;0.20;0.20;;;14.40;99.90;;;;;;7396402;19;20162;-75
2023/10/21 04:20:18;;;;;;;0.25;0.20;;;14.40;99.90;;;;;;7399721;19;20139;-75
2023/10/21 04:22:44;;;;;;;0.10;0.10;;;14.30;99.90;;;;;;7396585;19;20160;-74
2023/10/21 04:25:10;;;;;;;0.20;0.20;;;14.50;99.90;;;;;;7398361;19;20580;-75
2023/10/21 04:27:37;;;;;;;0.20;0.20;;;14.50;99.90;;;;;;7395989;19;20137;-74
2023/10/21 04:30:03;;;;;;;0.40;0.30;;;14.50;99.90;;;;;;7396403;19;20149;-74
2023/10/21 04:32:30;;;;;;;0.15;0.15;;;14.60;99.90;;;;;;7396663;19;20135;-74
2023/10/21 04:34:56;;;;;;;0.30;0.30;;;14.60;99.90;;;;;;7396858;19;20223;-75
2023/10/21 04:37:22;;;;;;;0.10;0.10;;;14.80;99.90;;;;;;7395475;19;20130;-75
2023/10/21 04:39:48;;;;;;;0.20;0.20;;;14.70;99.90;;;;;;7394804;19;20143;-75
2023/10/21 04:42:14;;;;;;;0.20;0.20;;;14.70;99.90;;;;;;7395007;19;20168;-75
2023/10/21 04:44:39;;;;;;;0.85;0.25;;;14.60;99.90;;;;;;7395996;19;20136;-75
2023/10/21 04:47:05;;;;;;;0.10;0.10;;;14.80;99.90;;;;;;7392889;19;20197;-76
2023/10/21 04:49:31;;;;;;;0.20;0.20;;;14.70;99.90;;;;;;7393337;19;20229;-76
2023/10/21 04:51:57;;;;;;;0.20;0.20;;;14.70;99.90;;;;;;7395239;19;20135;-75
2023/10/21 04:54:23;;;;;;;0.20;0.20;;;14.70;99.90;;;;;;7395389;19;20465;-74
2023/10/21 04:56:48;;;;;;;0.20;0.20;;;14.80;99.90;;;;;;7393554;19;20223;-75
2023/10/21 04:59:14;;;;;;;0.20;0.20;;;14.70;99.90;;;;;;7396417;19;20215;-75
2023/10/21 05:01:40;;;;;;;0.20;0.20;;;14.70;99.90;;;;;;7392027;19;20247;-75
2023/10/21 05:04:06;;;;;;;0.28;0.28;;;14.70;99.90;;;;;;7396088;19;20138;-75
2023/10/21 05:06:32;;;;;;;0.65;0.50;;;14.80;99.90;;;;;;7389043;19;20185;-75
2023/10/21 05:08:58;;;;;;;0.20;0.20;;;14.80;99.90;;;;;;7393007;19;20161;-74
2023/10/21 05:11:24;;;;;;;0.13;0.13;;;14.80;99.90;;;;;;7392668;19;20154;-74
2023/10/21 05:13:49;;;;;;;0.20;0.20;;;14.90;99.90;;;;;;7393934;19;20150;-75
2023/10/21 05:16:15;;;;;;;0.20;0.20;;;14.90;99.90;;;;;;7394439;19;20143;-74
2023/10/21 05:18:41;;;;;;;0.40;0.40;;;15.00;99.90;;;;;;7396360;19;20146;-74
2023/10/21 05:21:07;;;;;;;0.30;0.30;;;15.10;99.90;;;;;;7391969;19;20395;-75
2023/10/21 05:23:34;;;;;;;0.30;0.30;;;15.30;99.90;;;;;;7395555;19;20194;-74
2023/10/21 05:26:00;;;;;;;1.85;0.40;;;15.20;99.90;;;;;;7391942;19;20160;-75
2023/10/21 05:28:25;;;;;;;0.20;0.20;;;15.10;99.90;;;;;;7392268;19;20229;-75
2023/10/21 05:30:51;;;;;;;0.20;0.20;;;15.00;99.90;;;;;;7395310;19;20142;-75
2023/10/21 05:33:17;;;;;;;0.10;0.10;;;15.10;99.90;;;;;;7394282;19;20130;-75
2023/10/21 05:35:43;;;;;;;0.13;0.13;;;15.00;99.90;;;;;;7395826;19;20567;-75
2023/10/21 05:38:09;;;;;;;0.65;0.20;;;15.00;99.90;;;;;;7393414;19;20165;-75
2023/10/21 05:40:35;;;;;;;0.10;0.10;;;15.00;99.90;;;;;;7393940;19;20135;-75
2023/10/21 05:43:01;;;;;;;0.30;0.30;;;15.10;99.90;;;;;;7391824;19;20614;-74
2023/10/21 05:45:27;;;;;;;0.20;0.20;;;15.00;99.90;;;;;;7393124;19;20141;-75
2023/10/21 05:47:56;;;;;;;0.10;0.10;;;15.00;99.90;;;;;;7392142;19;20870;-75
2023/10/21 05:50:24;;;;;;;0.10;0.10;;;15.00;99.90;;;;;;7393329;19;20143;-73
2023/10/21 05:52:54;;;;;;;0.10;0.10;;;15.10;99.90;;;;;;7393366;19;20142;-75
2023/10/21 05:55:20;;;;;;;0.20;0.20;;;15.10;99.90;;;;;;7393148;19;20623;-75
2023/10/21 05:57:46;;;;;;;0.10;0.10;;;15.10;99.90;;;;;;7390098;19;20134;-74
2023/10/21 06:00:13;;;;;;;0.15;0.15;;;15.10;99.90;;;;;;7392370;19;20142;-75
2023/10/21 06:02:39;;;;;;;0.28;0.28;;;15.10;99.90;;;;;;7394841;19;20142;-76
2023/10/21 06:05:05;;;;;;;0.80;0.22;;;15.10;99.90;;;;;;7389491;19;20139;-73
2023/10/21 06:07:31;;;;;;;0.10;0.10;;;15.00;99.90;;;;;;7391241;19;20198;-74
2023/10/21 06:09:57;;;;;;;0.20;0.20;;;15.00;99.90;;;;;;7391617;19;20147;-74
2023/10/21 06:12:23;;;;;;;0.20;0.20;;;15.00;99.90;;;;;;7391321;19;20147;-74
2023/10/21 06:14:50;;;;;;;0.75;0.20;;;15.00;99.90;;;;;;7392646;19;20131;-74
2023/10/21 06:17:16;;;;;;;0.13;0.13;;;15.00;99.90;;;;;;7390641;19;20542;-75
2023/10/21 06:19:43;;;;;;;0.32;0.20;;;14.90;99.90;;;;;;7392484;19;20123;-74
2023/10/21 06:22:11;;;;;;;0.20;0.20;;;15.00;99.90;;;;;;7390577;19;20138;-75
2023/10/21 06:24:37;;;;;;;0.13;0.13;;;15.00;99.90;;;;;;7393509;19;20153;-74
2023/10/21 06:27:04;;;;;;;0.20;0.20;;;15.00;99.90;;;;;;7389735;19;20126;-74
2023/10/21 06:29:30;;;;;;;0.43;0.40;;;15.00;99.90;;;;;;7394203;19;20517;-76
2023/10/21 06:31:56;;;;;;;0.35;0.20;;;15.10;99.90;;;;;;7388043;19;20134;-76
2023/10/21 06:34:22;;;;;;;0.20;0.20;;;15.10;99.90;;;;;;7393486;19;20131;-75
2023/10/21 06:36:48;;;;;;;0.30;0.30;;;15.20;99.90;;;;;;7392796;19;20166;-76
2023/10/21 06:39:14;;;;;;;0.20;0.20;;;15.20;99.90;;;;;;7389840;19;20904;-76
2023/10/21 06:41:40;;;;;;;0.30;0.30;;;15.20;99.90;;;;;;7391073;19;20151;-75
2023/10/21 06:44:06;;;;;;;0.20;0.20;;;15.10;99.90;;;;;;7391986;19;20142;-75
2023/10/21 06:46:32;;;;;;;0.45;0.30;;;15.20;99.90;;;;;;7392267;19;20153;-74
2023/10/21 06:48:58;;;;;;;0.43;0.22;;;15.20;99.90;;;;;;7388846;19;20194;-76
2023/10/21 06:51:23;;;;;;;0.20;0.20;;;15.20;99.90;;;;;;7391810;19;20162;-77
2023/10/21 06:53:49;;;;;;;0.20;0.20;;;15.10;99.90;;;;;;7390966;19;20175;-77
2023/10/21 06:56:15;;;;;;;0.30;0.30;;;15.20;99.90;;;;;;7391290;19;20157;-75
2023/10/21 06:58:47;;;;;;;0.20;0.20;;;15.20;99.90;;;;;;7392569;19;20161;-77
2023/10/21 07:01:13;;;;;;;0.20;0.20;;;15.20;99.90;;;;;;7392447;19;20214;-76
2023/10/21 07:03:39;;;;;;;0.20;0.20;;;15.10;99.90;;;;;;7392319;19;20135;-75
2023/10/21 07:06:07;;;;;;;0.52;0.40;;;15.20;99.90;;;;;;7389340;19;20242;-76
2023/10/21 07:08:34;;;;;;;0.20;0.20;;;15.40;99.90;;;;;;7390567;19;20151;-75
2023/10/21 07:11:03;;;;;;;0.35;0.35;;;15.30;99.90;;;;;;7390174;19;20138;-75
2023/10/21 07:13:29;;;;;;;0.30;0.30;;;15.30;99.90;;;;;;7390597;19;20158;-74
2023/10/21 07:15:55;;;;;;;0.30;0.30;;;15.30;99.90;;;;;;7387718;19;20164;-73
2023/10/21 07:18:21;;;;;;;0.20;0.20;;;15.20;99.90;;;;;;7391904;19;20551;-76
2023/10/21 07:20:46;;;;;;;0.20;0.20;;;15.30;99.90;;;;;;7388896;19;20202;-75
2023/10/21 07:23:15;;;;;;;0.30;0.30;;;15.40;99.90;;;;;;7390600;19;20145;-74
2023/10/21 07:25:42;;;;;;;0.20;0.20;;;15.30;99.90;;;;;;7390197;19;20134;-75
2023/10/21 07:28:08;;;;;;;0.10;0.10;;;15.20;99.90;;;;;;7389011;19;20134;-73
2023/10/21 07:30:33;;;;;;;0.10;0.10;;;15.20;99.90;;;;;;7389746;19;20145;-74
2023/10/21 07:33:02;;;;;;;0.20;0.20;;;15.10;99.90;;;;;;7390637;19;20213;-74
2023/10/21 07:35:28;;;;;;;0.32;0.20;;;15.10;99.90;;;;;;7391432;19;20689;-73
2023/10/21 07:37:54;;;;;;;0.20;0.20;;;15.00;99.90;;;;;;7389876;19;20231;-75
2023/10/21 07:40:20;;;;;;;1.45;1.15;;;15.10;99.90;;;;;;7391032;19;20587;-73
2023/10/21 07:42:46;;;;;;;1.25;1.02;;;15.10;99.90;;;;;;7388066;19;20150;-73
2023/10/21 07:45:14;;;;;;;0.50;0.50;;;15.10;99.90;;;;;;7388774;19;20159;-73
2023/10/21 07:47:41;;;;;;;0.47;0.32;;;15.20;99.90;;;;;;7388221;19;21452;-75
2023/10/21 07:50:07;;;;;;;0.30;0.30;;;15.30;99.90;;;;;;7393284;19;20603;-74
2023/10/21 07:52:37;;;;;;;1.25;0.80;;;15.40;99.90;;;;;;7403841;19;20701;-73
2023/10/21 07:55:04;;;;;;;0.63;0.45;;;15.50;99.90;;;;;;7401644;19;20306;-74
2023/10/21 07:57:31;;;;;;;0.63;0.50;;;15.70;99.90;;;;;;7404222;19;20522;-74
2023/10/21 08:00:00;;;;;;;0.30;0.30;;;15.70;99.90;;;;;;7403356;19;20143;-73
2023/10/21 08:02:27;;;;;;;1.77;0.40;;;15.70;99.90;;;;;;7401179;19;20180;-76
2023/10/21 08:04:52;;;;;;;0.20;0.20;;;15.80;99.90;;;;;;7405305;19;20130;-75
2023/10/21 08:07:19;;;;;;;0.10;0.10;;;15.80;99.90;;;;;;7400949;19;20186;-74
2023/10/21 08:09:44;;;;;;;0.43;0.30;;;15.80;99.90;;;;;;7404798;19;20131;-75
2023/10/21 08:12:10;;;;;;;0.63;0.30;;;15.80;99.90;;;;;;7405780;19;20130;-75
2023/10/21 08:14:36;;;;;;;0.10;0.10;;;15.80;99.90;;;;;;7401453;19;20119;-76
2023/10/21 08:17:05;;;;;;;0.10;0.10;;;15.80;99.90;;;;;;7402420;19;20170;-75
2023/10/21 08:19:32;;;;;;;0.65;0.20;;;15.80;99.90;;;;;;7405473;19;20138;-75
2023/10/21 08:21:58;;;;;;;0.45;0.20;;;15.90;99.90;;;;;;7403320;19;20183;-76
2023/10/21 08:24:23;;;;;;;0.30;0.30;;;15.80;99.90;;;;;;7403804;19;20149;-76
2023/10/21 08:26:49;;;;;;;0.77;0.40;;;15.90;99.90;;;;;;7404591;19;20142;-74
2023/10/21 08:29:15;;;;;;;0.32;0.30;;;15.90;99.90;;;;;;7399560;19;20171;-75
2023/10/21 08:31:42;;;;;;;0.20;0.20;;;15.90;99.90;;;;;;7402720;19;20135;-74
2023/10/21 08:34:12;;;;;;;0.20;0.20;;;16.00;99.90;;;;;;7402561;19;20150;-72
2023/10/21 08:36:39;;;;;;;0.25;0.15;;;16.00;99.90;;;;;;7404416;19;20159;-73
2023/10/21 08:39:08;;;;;;;0.20;0.20;;;16.00;99.90;;;;;;7401323;19;20139;-75
2023/10/21 08:41:38;;;;;;;0.10;0.10;;;16.00;99.90;;;;;;7402052;19;20142;-76
2023/10/21 08:44:06;;;;;;;1.67;1.10;;;15.90;99.90;;;;;;7403289;19;20520;-76
2023/10/21 08:46:33;;;;;;;0.28;0.28;;;16.00;99.90;;;;;;7401374;19;20615;-76
2023/10/21 08:49:03;;;;;;;0.32;0.32;;;16.00;99.90;;;;;;7401931;19;20131;-75
2023/10/21 08:51:30;;;;;;;0.10;0.10;;;16.00;99.90;;;;;;7403692;19;20228;-76
2023/10/21 08:54:03;;;;;;;0.20;0.20;;;16.20;99.90;;;;;;7402515;19;20145;-75
2023/10/21 08:56:30;;;;;;;0.40;0.30;;;16.20;99.90;;;;;;7404185;19;20155;-74
2023/10/21 08:58:56;;;;;;;0.50;0.40;;;16.30;99.90;;;;;;7402823;19;20145;-75
2023/10/21 09:01:23;;;;;;;0.40;0.40;;;16.20;99.90;;;;;;7401774;19;20142;-77
2023/10/21 09:03:49;;;;;;;0.70;0.68;;;16.30;99.90;;;;;;7396158;19;20130;-77
2023/10/21 09:06:17;;;;;;;3.03;2.00;;;16.40;99.90;;;;;;7393770;19;20297;-76
2023/10/21 09:08:45;;;;;;;0.85;0.60;;;16.40;99.90;;;;;;7393997;19;20154;-76
2023/10/21 09:11:13;;;;;;;0.25;0.25;;;16.50;99.90;;;;;;7392831;19;20169;-76
2023/10/21 09:13:39;;;;;;;0.30;0.30;;;16.50;99.90;;;;;;7396534;19;20142;-76
2023/10/21 09:16:19;;;;;;;0.98;0.63;;;16.60;99.90;;;;;;7393460;19;20636;-76
2023/10/21 09:19:06;;;;;;;0.20;0.20;;;16.60;99.90;;;;;;7396768;19;20139;-76
2023/10/21 09:21:42;;;;;;;0.35;0.30;;;16.70;99.90;;;;;;7396555;19;20146;-78
2023/10/21 09:24:25;;;;;;;0.20;0.20;;;16.70;99.90;;;;;;7396197;19;20141;-77
2023/10/21 09:26:51;;;;;;;0.20;0.20;;;16.80;99.90;;;;;;7394030;19;20150;-77
2023/10/21 09:29:22;;;;;;;1.58;0.82;;;16.80;99.90;;;;;;7394985;19;20139;-77
2023/10/21 09:31:51;;;;;;;1.42;0.35;;;16.90;99.90;;;;;;7393189;19;20159;-77
2023/10/21 09:34:26;;;;;;;1.23;0.35;;;17.00;99.90;;;;;;7395354;19;20168;-76
2023/10/21 09:37:02;;;;;;;0.45;0.20;;;17.10;99.90;;;;;;7391544;19;20172;-76
2023/10/21 09:39:32;;;;;;;0.20;0.20;;;17.50;99.90;;;;;;7395847;19;20612;-76
2023/10/21 09:42:02;;;;;;;0.20;0.20;;;17.70;99.90;;;;;;7397553;19;20600;-76
2023/10/21 09:44:29;;;;;;;0.65;0.32;;;17.70;99.90;;;;;;7395631;19;20145;-74
2023/10/21 09:46:57;;;;;;;0.20;0.20;;;17.60;99.90;;;;;;7395646;19;20214;-74
2023/10/21 09:49:24;;;;;;;0.30;0.20;;;17.50;99.90;;;;;;7392089;19;20247;-74
2023/10/21 09:52:00;;;;;;;0.30;0.20;;;17.50;99.90;;;;;;7392399;19;20159;-75
2023/10/21 09:55:01;;;;;;;0.85;0.30;;;17.50;99.90;;;;;;7395796;19;20513;-75
2023/10/21 09:57:27;;;;;;;0.20;0.20;;;17.50;99.90;;;;;;7396349;19;20150;-73
2023/10/21 09:59:56;;;;;;;0.30;0.30;;;17.30;99.90;;;;;;7394750;19;20155;-75
2023/10/21 10:02:22;;;;;;;0.25;0.25;;;17.30;99.90;;;;;;7394078;19;20138;-74
2023/10/21 10:04:49;;;;;;;0.25;0.25;;;17.40;99.90;;;;;;7392703;19;20603;-74
2023/10/21 10:07:17;;;;;;;0.20;0.20;;;17.40;99.90;;;;;;7390914;19;20673;-75
2023/10/21 10:09:45;;;;;;;0.20;0.20;;;17.50;99.90;;;;;;7393479;19;20142;-75
2023/10/21 10:12:25;;;;;;;0.50;0.50;;;17.70;99.90;;;;;;7392578;19;20456;-76
2023/10/21 10:14:53;;;;;;;0.20;0.20;;;17.60;99.90;;;;;;7390180;19;20139;-75
2023/10/21 10:17:46;;;;;;;0.20;0.20;;;17.70;99.90;;;;;;7392353;19;20150;-75
2023/10/21 10:20:22;;;;;;;0.30;0.20;;;18.00;99.90;;;;;;7394855;19;20142;-75
2023/10/21 10:23:02;;;;;;;0.60;0.60;;;17.80;99.90;;;;;;7392777;19;20176;-75
2023/10/21 10:25:51;;;;;;;2.78;1.55;;;17.90;99.90;;;;;;7392867;19;20616;-75
2023/10/21 10:28:21;;;;;;;0.30;0.22;;;18.00;99.90;;;;;;7393408;19;20138;-76
2023/10/21 10:30:50;;;;;;;0.40;0.40;;;18.10;99.90;;;;;;7391327;19;20161;-76
2023/10/21 10:33:24;;;;;;;0.50;0.40;;;17.90;99.90;;;;;;7394181;19;20135;-75
2023/10/21 10:35:51;;;;;;;0.45;0.20;;;17.90;99.90;;;;;;7392964;19;20137;-74
2023/10/21 10:38:33;;;;;;;0.10;0.10;;;17.90;99.90;;;;;;7388253;19;20188;-76
2023/10/21 10:41:06;;;;;;;0.88;0.30;;;18.00;99.90;;;;;;7392826;19;20176;-75
2023/10/21 10:43:32;;;;;;;9.95;7.25;;;18.00;99.90;;;;;;7392461;19;20135;-76
2023/10/21 10:46:00;;;;;;;4.55;4.15;;;18.10;99.90;;;;;;7394202;19;20142;-75
2023/10/21 10:48:26;;;;;;;0.50;0.50;;;18.10;99.90;;;;;;7390162;19;20597;-73
2023/10/21 10:50:58;;;;;;;0.60;0.60;;;17.90;99.90;;;;;;7390325;19;20449;-74
2023/10/21 10:53:24;;;;;;;0.43;0.43;;;18.00;99.90;;;;;;7392240;19;20127;-75
2023/10/21 10:55:57;;;;;;;0.20;0.20;;;17.90;99.90;;;;;;7389468;19;20630;-75
2023/10/21 10:58:26;;;;;;;0.40;0.25;;;17.90;99.90;;;;;;7391211;19;20150;-75
2023/10/21 11:00:52;;;;;;;0.20;0.20;;;18.00;99.90;;;;;;7392260;19;20163;-76
2023/10/21 11:03:27;;;;;;;0.40;0.40;;;18.00;99.90;;;;;;7390440;19;20122;-75
2023/10/21 11:05:57;;;;;;;1.05;0.40;;;17.90;99.90;;;;;;7393176;19;20178;-75
2023/10/21 11:08:27;;;;;;;0.28;0.28;;;17.90;99.90;;;;;;7392517;19;20127;-75
2023/10/21 11:11:03;;;;;;;0.43;0.30;;;17.90;99.90;;;;;;7391225;19;20175;-78
2023/10/21 11:13:29;;;;;;;0.57;0.25;;;18.00;99.90;;;;;;7394696;19;20575;-78
2023/10/21 11:15:57;;;;;;;0.10;0.10;;;18.10;99.90;;;;;;7388372;19;20144;-76
2023/10/21 11:18:26;;;;;;;0.70;0.30;;;18.00;99.90;;;;;;7392373;19;20142;-75
2023/10/21 11:20:53;;;;;;;0.88;0.40;;;18.10;99.90;;;;;;7390195;19;20126;-75
2023/10/21 11:23:21;;;;;;;0.82;0.70;;;18.20;99.90;;;;;;7392102;19;20639;-76
2023/10/21 11:25:50;;;;;;;0.80;0.50;;;18.20;99.90;;;;;;7389976;19;20126;-75
2023/10/21 11:28:16;;;;;;;0.77;0.40;;;18.20;99.90;;;;;;7390329;19;20210;-77
2023/10/21 11:30:44;;;;;;;0.95;0.40;;;18.20;99.90;;;;;;7390794;19;20154;-76
2023/10/21 11:33:10;;;;;;;0.20;0.20;;;18.10;99.90;;;;;;7391917;19;20138;-76
2023/10/21 11:35:44;;;;;;;0.30;0.30;;;18.00;99.90;;;;;;7389389;19;20156;-76
2023/10/21 11:38:13;;;;;;;0.20;0.20;;;18.00;99.90;;;;;;7387358;19;20616;-76
2023/10/21 11:40:40;;;;;;;0.60;0.35;;;18.00;99.90;;;;;;7393473;19;20238;-77
2023/10/21 11:43:14;;;;;;;0.63;0.30;;;18.10;99.90;;;;;;7389719;19;20535;-75
2023/10/21 11:45:41;;;;;;;0.35;0.30;;;18.00;99.90;;;;;;7391076;19;20152;-74
2023/10/21 11:48:10;;;;;;;0.20;0.20;;;18.00;99.90;;;;;;7389688;19;20477;-74
2023/10/21 11:50:42;;;;;;;0.65;0.30;;;18.10;99.90;;;;;;7390038;19;20607;-74
2023/10/21 11:53:09;;;;;;;0.57;0.30;;;18.10;99.90;;;;;;7392430;19;20160;-76
2023/10/21 12:12:16;;;;;;;0.60;0.22;;;18.70;99.90;;;;;;7388270;19;20162;-75
2023/10/21 12:19:48;;;;;;;0.10;0.10;;;18.90;99.90;;;;;;7388701;19;20604;-75
2023/10/21 12:41:11;;;;;;;0.10;0.10;;;18.70;99.90;;;;;;7396027;19;20143;-77
2023/10/21 12:43:38;;;;;;;0.70;0.40;;;18.50;99.90;;;;;;7396916;19;20119;-76
2023/10/21 12:46:20;;;;;;;0.10;0.10;;;18.30;99.90;;;;;;7398020;19;20171;-77
2023/10/21 12:48:54;;;;;;;0.20;0.20;;;18.30;99.90;;;;;;7394974;19;20190;-78
2023/10/21 12:51:21;;;;;;;0.30;0.25;;;18.30;99.90;;;;;;7396461;19;20154;-78
2023/10/21 12:53:47;;;;;;;0.20;0.20;;;18.30;99.90;;;;;;7398222;19;20135;-82
2023/10/21 12:56:13;;;;;;;1.20;0.73;;;18.20;99.90;;;;;;7397901;19;20151;-78
2023/10/21 12:58:40;;;;;;;1.77;0.95;;;18.10;99.90;;;;;;7399373;19;20131;-77
2023/10/21 13:01:10;;;;;;;13.23;5.57;;;18.20;99.90;;;;;;7396313;19;20134;-77
2023/10/21 13:03:37;;;;;;;1.15;0.80;;;18.30;99.90;;;;;;7396744;19;20150;-74
2023/10/21 13:06:05;;;;;;;0.22;0.20;;;18.10;99.90;;;;;;7392670;19;20192;-77
2023/10/21 13:08:33;;;;;;;0.93;0.43;;;18.20;99.90;;;;;;7392553;19;20227;-76
2023/10/21 13:10:58;;;;;;;2.47;1.63;;;18.30;99.90;;;;;;7394200;19;20161;-75
2023/10/21 13:13:27;;;;;;;1.92;0.70;;;18.20;99.90;;;;;;7396329;19;20159;-76
2023/10/21 13:15:56;;;;;;;0.22;0.20;;;18.20;99.90;;;;;;7396626;19;20483;-77
2023/10/21 13:18:22;;;;;;;0.70;0.47;;;18.10;99.90;;;;;;7393618;19;20897;-75
2023/10/21 13:20:49;;;;;;;1.45;0.75;;;18.10;99.90;;;;;;7389641;19;20134;-75
2023/10/21 13:23:16;;;;;;;0.40;0.40;;;18.20;99.90;;;;;;7396413;19;20572;-76
2023/10/21 13:25:42;;;;;;;0.57;0.57;;;18.40;99.90;;;;;;7393892;19;20596;-76
2023/10/21 13:28:08;;;;;;;0.60;0.30;;;18.40;99.90;;;;;;7394330;19;20147;-76
2023/10/21 13:30:34;;;;;;;0.70;0.60;;;18.40;99.90;;;;;;7395866;19;20138;-75